Friday, July 29, 2016, 5:35 PM EDT

KIPT, Williamsport-lycoming County

Location: Montoursville, PA, United States Lat: 41.25
Local Time: 5:35 PM EDT (21:35 GMT) Lon: -76.917
Time Zone: US/Eastern Elev: 528 ft

Show me the last for .
Show Decoded

2016-07-29 16:54 METAR KIPT 292054Z 06005KT 10SM SCT075 BKN110 32/15 A2985 RMK AO2 SLP104 MOD CU
                 ALQDS 60000 T03170150 55001 =
2016-07-29 15:54 METAR KIPT 291954Z VRB03KT 10SM FEW080 33/13 A2984 RMK AO2 RAB10E12 SLP100 P0000
                 T03330133 =
2016-07-29 14:54 METAR KIPT 291854Z 36005KT 10SM FEW080 BKN110 32/14 A2986 RMK AO2 SLP105
                 T03220144 =
2016-07-29 13:54 METAR KIPT 291754Z 01007KT 330V040 10SM SCT070 32/13 A2985 RMK AO2 RAB40E49
                 SLP103 P0000 60000 T03170133 10339 20222 56008 =
2016-07-29 12:54 METAR KIPT 291654Z 00000KT 10SM SCT060 33/13 A2986 RMK AO2 SLP104 T03280133 =
2016-07-29 11:54 METAR KIPT 291554Z COR 00000KT 10SM SCT060 31/14 A2987 =
2016-07-29 10:54 METAR KIPT 291454Z 18004KT 10SM CLR 28/17 A2988 RMK AO2 SLP113 T02830167 58004 =
2016-07-29 09:54 METAR KIPT 291354Z 26008KT 10SM CLR 26/18 A2989 RMK AO2 SLP119 T02610183 =
2016-07-29 08:54 METAR KIPT 291254Z 28008KT 10SM CLR 24/19 A2990 RMK AO2 SLP120 T02440194 =
2016-07-29 07:54 METAR KIPT 291154Z 27008KT 7SM SCT005 22/19 A2989 RMK AO2 SLP117 60000 T02220194
                 10222 20206 53019 =
2016-07-29 07:06 METAR KIPT 291106Z 26007KT 6SM BR SCT005 21/19 A2988 RMK AO2 T02110189 $ =
2016-07-29 06:54 METAR KIPT 291054Z 26008KT 6SM BR SCT008 21/19 A2987 RMK AO2 SLP111 T02110189 $
                 =
2016-07-29 06:38 METAR KIPT 291038Z 27009KT 6SM BR SCT008 21/19 A2987 RMK AO2 T02110189 $ =
2016-07-29 05:54 METAR KIPT 290954Z AUTO 26006KT 8SM CLR 21/19 A2985 RMK AO2 SLP104 T02110189 $ =
2016-07-29 05:42 METAR KIPT 290942Z AUTO 27007KT 8SM FEW008 21/19 A2984 RMK AO2 T02110189 $ =
2016-07-29 04:54 METAR KIPT 290854Z AUTO 27005KT 10SM BKN009 22/19 A2983 RMK AO2 CIG 008V012
                 SLP098 60000 T02170189 58015 $ =
2016-07-29 04:42 METAR KIPT 290842Z AUTO 28005KT 10SM FEW009 22/19 A2983 RMK AO2 T02170189 $ =
2016-07-29 03:54 METAR KIPT 290754Z AUTO 00000KT 10SM CLR 22/18 A2985 RMK AO2 SLP104 T02170183 $
                 =
2016-07-29 02:54 METAR KIPT 290654Z AUTO 00000KT 10SM CLR 22/18 A2987 RMK AO2 RAE37 SLP111 P0000
                 T02170183 $ =
2016-07-29 01:54 METAR KIPT 290554Z AUTO 00000KT 10SM -RA FEW120 22/19 A2988 RMK AO2 RAB45 SLP113
                 P0000 60000 T02220189 10272 20222 55004 $ =
2016-07-29 00:54 METAR KIPT 290454Z AUTO 00000KT 10SM FEW110 23/18 A2988 RMK AO2 SLP113 T02280183
                 403170178 $ =
2016-07-28 23:54 METAR KIPT 290354Z AUTO 29005KT 10SM FEW060 FEW100 BKN110 23/18 A2989 RMK AO2
                 SLP116 T02330178 $ =
2016-07-28 22:54 METAR KIPT 290254Z AUTO 26005KT 10SM FEW110 24/17 A2989 RMK AO2 RAE07 SLP117
                 P0000 60000 T02390172 50014 $ =
2016-07-28 21:54 METAR KIPT 290154Z 25006KT 10SM -RA CLR 24/18 A2989 RMK AO2 RAB26 SLP120 P0000
                 T02390183 $ =
2016-07-28 20:54 METAR KIPT 290054Z 26009KT 10SM CLR 26/17 A2986 RMK AO2 SLP108 T02610167 $ =
2016-07-28 19:54 METAR KIPT 282354Z 24005KT 10SM FEW080 SCT100 BKN120 28/18 A2985 RMK AO2 SLP105
                 T02780183 10317 20278 53005 $ =
2016-07-28 18:54 METAR KIPT 282254Z 19008KT 10SM SCT110 28/19 A2984 RMK AO2 SLP103 T02830189 $ =
2016-07-28 17:54 METAR KIPT 282154Z 00000KT 10SM FEW060 30/19 A2982 RMK AO2 SLP094 T03000189 $ =

Support USWX by starting your Amazon purchase here.